AFL161 ULMM-UUEE
Flight info
| Callsign | AFL161 |
|---|---|
| Flight time | 2h 8m |
| Altitude | 37000 |
| Route | ASGO2P ASGOR T693 PILAN P65 UREPI/K0837F380 P65 ROMTA ROMTA3F |
| Aircraft | A320/M-SDE3FGHIRWY/LB1 |
Departure
| Time | 2026-05-06 08:53 |
|---|---|
| Airport | Emperor Nicholas II Murmansk Airport (ULMM) |
Arrival
| Time | 2026-05-06 11:01 |
|---|---|
| Airport | Sheremetyevo International Airport (UUEE) |
| Time | Latitude | Longitude | Altitude | Speed | Heading |
|---|---|---|---|---|---|
| 2026-05-06 08:01 | 68.78374 | 32.75665 | 271 ft | 0 kts | 145° |
| 2026-05-06 08:42 | 68.78382 | 32.75650 | 243 ft | 4 kts | 147° |
| 2026-05-06 08:42 | 68.78405 | 32.75615 | 271 ft | 4 kts | 167° |
| 2026-05-06 08:42 | 68.78430 | 32.75626 | 271 ft | 0 kts | 237° |
| 2026-05-06 08:46 | 68.78426 | 32.75609 | 271 ft | 5 kts | 237° |
| 2026-05-06 08:46 | 68.78389 | 32.75453 | 271 ft | 12 kts | 236° |
| 2026-05-06 08:46 | 68.78349 | 32.75287 | 271 ft | 7 kts | 236° |
| 2026-05-06 08:46 | 68.78345 | 32.75270 | 271 ft | 0 kts | 236° |
| 2026-05-06 08:47 | 68.78329 | 32.75208 | 271 ft | 8 kts | 235° |
| 2026-05-06 08:47 | 68.78285 | 32.75063 | 272 ft | 8 kts | 208° |
| 2026-05-06 08:48 | 68.78233 | 32.75094 | 272 ft | 7 kts | 151° |
| 2026-05-06 08:48 | 68.78177 | 32.75199 | 271 ft | 17 kts | 145° |
| 2026-05-06 08:48 | 68.78045 | 32.75444 | 270 ft | 24 kts | 146° |
| 2026-05-06 08:48 | 68.77906 | 32.75694 | 273 ft | 24 kts | 146° |
| 2026-05-06 08:49 | 68.77768 | 32.75948 | 272 ft | 23 kts | 146° |
| 2026-05-06 08:49 | 68.77635 | 32.76193 | 273 ft | 22 kts | 146° |
| 2026-05-06 08:49 | 68.77524 | 32.76400 | 274 ft | 17 kts | 147° |
| 2026-05-06 08:49 | 68.77448 | 32.76547 | 274 ft | 12 kts | 138° |
| 2026-05-06 08:50 | 68.77433 | 32.76745 | 274 ft | 11 kts | 84° |
| 2026-05-06 08:50 | 68.77441 | 32.77001 | 275 ft | 14 kts | 86° |
| 2026-05-06 08:50 | 68.77411 | 32.77160 | 277 ft | 9 kts | 146° |
| 2026-05-06 08:50 | 68.77364 | 32.77235 | 276 ft | 7 kts | 156° |
| 2026-05-06 08:51 | 68.77326 | 32.77216 | 276 ft | 4 kts | 217° |
| 2026-05-06 08:51 | 68.77321 | 32.77199 | 276 ft | 0 kts | 229° |
| 2026-05-06 08:51 | 68.77319 | 32.77193 | 276 ft | 3 kts | 230° |
| 2026-05-06 08:51 | 68.77288 | 32.77069 | 276 ft | 12 kts | 237° |
| 2026-05-06 08:52 | 68.77285 | 32.76867 | 278 ft | 11 kts | 303° |
| 2026-05-06 08:52 | 68.77323 | 32.76768 | 274 ft | 0 kts | 325° |
| 2026-05-06 08:52 | 68.77338 | 32.76742 | 275 ft | 13 kts | 326° |
| 2026-05-06 08:53 | 68.77637 | 32.76195 | 275 ft | 87 kts | 326° |
| 2026-05-06 08:53 | 68.78306 | 32.74962 | 274 ft | 141 kts | 326° |
| 2026-05-06 08:53 | 68.79187 | 32.73346 | 640 ft | 156 kts | 326° |
| 2026-05-06 08:53 | 68.80083 | 32.71697 | 1501 ft | 154 kts | 327° |
| 2026-05-06 08:54 | 68.80960 | 32.70024 | 2241 ft | 153 kts | 326° |
| 2026-05-06 08:54 | 68.81908 | 32.68209 | 2579 ft | 176 kts | 326° |
| 2026-05-06 08:54 | 68.82971 | 32.66163 | 2962 ft | 195 kts | 327° |
| 2026-05-06 08:54 | 68.84161 | 32.63910 | 3271 ft | 221 kts | 327° |
| 2026-05-06 08:55 | 68.85437 | 32.61497 | 4089 ft | 226 kts | 328° |
| 2026-05-06 08:55 | 68.86737 | 32.59062 | 4976 ft | 230 kts | 325° |
| 2026-05-06 08:55 | 68.87752 | 32.55613 | 5761 ft | 241 kts | 293° |
| 2026-05-06 08:55 | 68.87883 | 32.50808 | 5999 ft | 265 kts | 259° |
| 2026-05-06 08:56 | 68.87123 | 32.46078 | 5753 ft | 269 kts | 238° |
| 2026-05-06 08:56 | 68.85988 | 32.41942 | 5754 ft | 272 kts | 232° |
| 2026-05-06 08:56 | 68.84704 | 32.38060 | 5749 ft | 275 kts | 219° |
| 2026-05-06 08:56 | 68.82955 | 32.36033 | 5755 ft | 278 kts | 187° |
| 2026-05-06 08:57 | 68.81074 | 32.36716 | 6289 ft | 281 kts | 156° |
| 2026-05-06 08:57 | 68.79392 | 32.39342 | 7177 ft | 282 kts | 146° |
| 2026-05-06 08:57 | 68.77734 | 32.42322 | 8074 ft | 285 kts | 145° |
| 2026-05-06 08:57 | 68.76080 | 32.45407 | 8951 ft | 288 kts | 144° |
| 2026-05-06 08:58 | 68.74417 | 32.48540 | 9809 ft | 291 kts | 144° |
| 2026-05-06 08:58 | 68.72721 | 32.51738 | 10480 ft | 299 kts | 145° |
| 2026-05-06 08:58 | 68.70983 | 32.55006 | 11201 ft | 305 kts | 146° |
| 2026-05-06 08:58 | 68.69222 | 32.58316 | 11968 ft | 308 kts | 146° |
| 2026-05-06 08:59 | 68.67444 | 32.61383 | 12712 ft | 312 kts | 154° |
| 2026-05-06 08:59 | 68.65372 | 32.63693 | 13016 ft | 331 kts | 162° |
| 2026-05-06 08:59 | 68.63117 | 32.65834 | 13149 ft | 354 kts | 162° |
| 2026-05-06 08:59 | 68.60731 | 32.68080 | 13553 ft | 366 kts | 162° |
| 2026-05-06 09:00 | 68.58306 | 32.70363 | 14145 ft | 371 kts | 162° |
| 2026-05-06 09:00 | 68.55850 | 32.72683 | 14786 ft | 375 kts | 162° |
| 2026-05-06 09:00 | 68.53371 | 32.74950 | 15421 ft | 377 kts | 166° |
| 2026-05-06 09:00 | 68.50789 | 32.76265 | 16051 ft | 379 kts | 176° |
| 2026-05-06 09:01 | 68.48224 | 32.76348 | 16664 ft | 380 kts | 184° |
| 2026-05-06 09:01 | 68.45569 | 32.76042 | 17299 ft | 383 kts | 184° |
| 2026-05-06 09:01 | 68.42882 | 32.75740 | 17923 ft | 387 kts | 184° |
| 2026-05-06 09:01 | 68.40185 | 32.75530 | 18482 ft | 390 kts | 182° |
| 2026-05-06 09:02 | 68.37461 | 32.75507 | 19050 ft | 393 kts | 181° |
| 2026-05-06 09:02 | 68.34754 | 32.75595 | 19618 ft | 395 kts | 181° |
| 2026-05-06 09:02 | 68.31999 | 32.75723 | 20188 ft | 397 kts | 181° |
| 2026-05-06 09:02 | 68.29224 | 32.75847 | 20739 ft | 400 kts | 181° |
| 2026-05-06 09:03 | 68.26437 | 32.75942 | 21277 ft | 402 kts | 181° |
| 2026-05-06 09:03 | 68.23632 | 32.76003 | 21810 ft | 404 kts | 181° |
| 2026-05-06 09:03 | 68.20807 | 32.76043 | 22327 ft | 406 kts | 181° |
| 2026-05-06 09:03 | 68.18005 | 32.76074 | 22827 ft | 408 kts | 181° |
| 2026-05-06 09:04 | 68.15157 | 32.76108 | 23307 ft | 410 kts | 181° |
| 2026-05-06 09:04 | 68.12294 | 32.76144 | 23702 ft | 412 kts | 181° |
| 2026-05-06 09:04 | 68.09410 | 32.76182 | 24063 ft | 415 kts | 181° |
| 2026-05-06 09:04 | 68.06521 | 32.76221 | 24417 ft | 417 kts | 181° |
| 2026-05-06 09:05 | 68.03605 | 32.76260 | 24769 ft | 420 kts | 181° |
| 2026-05-06 09:05 | 68.00676 | 32.76306 | 25115 ft | 422 kts | 181° |
| 2026-05-06 09:05 | 67.97723 | 32.76353 | 25462 ft | 424 kts | 181° |
| 2026-05-06 09:05 | 67.94763 | 32.76428 | 25785 ft | 427 kts | 181° |
| 2026-05-06 09:06 | 67.91782 | 32.76539 | 26124 ft | 429 kts | 181° |
| 2026-05-06 09:06 | 67.88781 | 32.76667 | 26435 ft | 432 kts | 181° |
| 2026-05-06 09:06 | 67.85804 | 32.76799 | 26740 ft | 434 kts | 181° |
| 2026-05-06 09:06 | 67.82765 | 32.76936 | 27026 ft | 436 kts | 181° |
| 2026-05-06 09:07 | 67.79724 | 32.77071 | 27332 ft | 439 kts | 181° |
| 2026-05-06 09:07 | 67.76664 | 32.77197 | 27616 ft | 441 kts | 181° |
| 2026-05-06 09:07 | 67.73585 | 32.77313 | 27896 ft | 443 kts | 181° |
| 2026-05-06 09:07 | 67.70499 | 32.77427 | 28162 ft | 445 kts | 181° |
| 2026-05-06 09:08 | 67.67375 | 32.77546 | 28433 ft | 447 kts | 181° |
| 2026-05-06 09:08 | 67.64253 | 32.77671 | 28685 ft | 449 kts | 181° |
| 2026-05-06 09:08 | 67.61124 | 32.77796 | 28927 ft | 451 kts | 181° |
| 2026-05-06 09:08 | 67.58016 | 32.77914 | 29209 ft | 452 kts | 181° |
| 2026-05-06 09:09 | 67.54871 | 32.78029 | 29563 ft | 451 kts | 181° |
| 2026-05-06 09:09 | 67.51723 | 32.78144 | 29889 ft | 451 kts | 181° |
| 2026-05-06 09:09 | 67.48588 | 32.78257 | 30151 ft | 451 kts | 181° |
| 2026-05-06 09:09 | 67.45452 | 32.78865 | 30410 ft | 453 kts | 173° |
| 2026-05-06 09:10 | 67.42372 | 32.80696 | 30681 ft | 455 kts | 166° |
| 2026-05-06 09:10 | 67.39330 | 32.83019 | 30937 ft | 456 kts | 166° |
| 2026-05-06 09:10 | 67.36282 | 32.85343 | 31173 ft | 456 kts | 166° |
| 2026-05-06 09:10 | 67.33229 | 32.87659 | 31446 ft | 456 kts | 166° |
| 2026-05-06 09:11 | 67.30186 | 32.89953 | 31712 ft | 456 kts | 166° |
| 2026-05-06 09:11 | 67.27128 | 32.92243 | 31982 ft | 456 kts | 166° |
| 2026-05-06 09:11 | 67.24116 | 32.94491 | 32234 ft | 456 kts | 166° |
| 2026-05-06 09:11 | 67.21069 | 32.96758 | 32498 ft | 456 kts | 166° |
| 2026-05-06 09:12 | 67.18009 | 32.99027 | 32774 ft | 456 kts | 166° |
| 2026-05-06 09:12 | 67.14952 | 33.01286 | 33052 ft | 456 kts | 166° |
| 2026-05-06 09:12 | 67.11899 | 33.03544 | 33310 ft | 457 kts | 167° |
| 2026-05-06 09:12 | 67.08842 | 33.05797 | 33578 ft | 457 kts | 167° |
| 2026-05-06 09:13 | 67.05778 | 33.08038 | 33817 ft | 457 kts | 167° |
| 2026-05-06 09:13 | 67.02717 | 33.10269 | 34047 ft | 457 kts | 167° |
| 2026-05-06 09:13 | 66.99666 | 33.12494 | 34276 ft | 457 kts | 167° |
| 2026-05-06 09:13 | 66.96599 | 33.14729 | 34487 ft | 457 kts | 167° |
| 2026-05-06 09:14 | 66.93544 | 33.16957 | 34689 ft | 457 kts | 167° |
| 2026-05-06 09:14 | 66.90520 | 33.19163 | 34894 ft | 457 kts | 167° |
| 2026-05-06 09:14 | 66.87454 | 33.21400 | 35097 ft | 457 kts | 167° |
| 2026-05-06 09:14 | 66.84395 | 33.23621 | 35287 ft | 457 kts | 167° |
| 2026-05-06 09:15 | 66.81326 | 33.25829 | 35468 ft | 457 kts | 167° |
| 2026-05-06 09:15 | 66.78265 | 33.28015 | 35645 ft | 457 kts | 167° |
| 2026-05-06 09:15 | 66.75197 | 33.30206 | 35815 ft | 457 kts | 167° |
| 2026-05-06 09:15 | 66.72175 | 33.32369 | 35979 ft | 457 kts | 167° |
| 2026-05-06 09:16 | 66.69117 | 33.34553 | 36133 ft | 457 kts | 167° |
| 2026-05-06 09:16 | 66.66051 | 33.36732 | 36281 ft | 457 kts | 167° |
| 2026-05-06 09:16 | 66.62982 | 33.38905 | 36430 ft | 457 kts | 168° |
| 2026-05-06 09:16 | 66.59920 | 33.41070 | 36565 ft | 457 kts | 168° |
| 2026-05-06 09:17 | 66.56862 | 33.43229 | 36696 ft | 457 kts | 168° |
| 2026-05-06 09:17 | 66.50706 | 33.47550 | 36726 ft | 460 kts | 168° |
| 2026-05-06 09:18 | 66.44540 | 33.51847 | 36725 ft | 460 kts | 168° |
| 2026-05-06 09:18 | 66.38374 | 33.56137 | 36726 ft | 460 kts | 168° |
| 2026-05-06 09:19 | 66.32199 | 33.60406 | 36725 ft | 460 kts | 168° |
| 2026-05-06 09:19 | 66.26069 | 33.64599 | 36725 ft | 460 kts | 168° |
| 2026-05-06 09:20 | 66.19891 | 33.68806 | 36731 ft | 460 kts | 168° |
| 2026-05-06 09:20 | 66.13705 | 33.73011 | 36746 ft | 461 kts | 168° |
| 2026-05-06 09:21 | 66.07521 | 33.77172 | 36742 ft | 461 kts | 168° |
| 2026-05-06 09:21 | 66.01320 | 33.81292 | 36746 ft | 461 kts | 168° |
| 2026-05-06 09:22 | 65.95121 | 33.85409 | 36742 ft | 461 kts | 168° |
| 2026-05-06 09:22 | 65.88960 | 33.89504 | 36744 ft | 461 kts | 169° |
| 2026-05-06 09:23 | 65.82758 | 33.93595 | 36742 ft | 461 kts | 169° |
| 2026-05-06 09:23 | 65.76554 | 33.97651 | 36747 ft | 461 kts | 169° |
| 2026-05-06 09:24 | 65.70365 | 34.01691 | 36747 ft | 461 kts | 169° |
| 2026-05-06 09:24 | 65.64164 | 34.05720 | 36745 ft | 461 kts | 169° |
| 2026-05-06 09:25 | 65.57999 | 34.09703 | 36742 ft | 461 kts | 169° |
| 2026-05-06 09:25 | 65.51799 | 34.13682 | 36740 ft | 460 kts | 169° |
| 2026-05-06 09:26 | 65.45601 | 34.17637 | 36739 ft | 460 kts | 169° |
| 2026-05-06 09:26 | 65.39409 | 34.21576 | 36738 ft | 460 kts | 169° |
| 2026-05-06 09:27 | 65.33219 | 34.25487 | 36737 ft | 460 kts | 169° |
| 2026-05-06 09:27 | 65.27027 | 34.29387 | 36739 ft | 460 kts | 169° |
| 2026-05-06 09:28 | 65.20881 | 34.33263 | 36729 ft | 459 kts | 169° |
| 2026-05-06 09:28 | 65.14697 | 34.37134 | 36731 ft | 459 kts | 170° |
| 2026-05-06 09:29 | 65.08508 | 34.40959 | 36735 ft | 459 kts | 170° |
| 2026-05-06 09:29 | 65.02311 | 34.44803 | 36740 ft | 459 kts | 170° |
| 2026-05-06 09:30 | 64.97164 | 34.47985 | 36743 ft | 459 kts | 170° |
| 2026-05-06 09:30 | 64.89990 | 34.52671 | 36743 ft | 461 kts | 168° |
| 2026-05-06 09:31 | 64.84863 | 34.56539 | 36744 ft | 462 kts | 167° |
| 2026-05-06 09:31 | 64.78783 | 34.61235 | 36742 ft | 461 kts | 167° |
| 2026-05-06 09:32 | 64.72663 | 34.65787 | 36743 ft | 461 kts | 168° |
| 2026-05-06 09:32 | 64.66538 | 34.70198 | 36746 ft | 461 kts | 168° |
| 2026-05-06 09:33 | 64.60401 | 34.74602 | 36745 ft | 461 kts | 168° |
| 2026-05-06 09:33 | 64.54270 | 34.79032 | 36747 ft | 461 kts | 168° |
| 2026-05-06 09:34 | 64.48171 | 34.83407 | 36745 ft | 460 kts | 168° |
| 2026-05-06 09:34 | 64.42043 | 34.87830 | 36747 ft | 461 kts | 167° |
| 2026-05-06 09:35 | 64.35944 | 34.92435 | 36750 ft | 461 kts | 167° |
| 2026-05-06 09:35 | 64.29831 | 34.97050 | 36751 ft | 461 kts | 167° |
| 2026-05-06 09:36 | 64.23771 | 35.01568 | 36751 ft | 461 kts | 167° |
| 2026-05-06 09:36 | 64.17657 | 35.06085 | 36751 ft | 460 kts | 168° |
| 2026-05-06 09:37 | 64.11552 | 35.10569 | 36755 ft | 460 kts | 168° |
| 2026-05-06 09:37 | 64.05457 | 35.15032 | 36754 ft | 460 kts | 167° |
| 2026-05-06 09:38 | 63.99387 | 35.19816 | 36755 ft | 461 kts | 166° |
| 2026-05-06 09:38 | 63.93342 | 35.24778 | 36753 ft | 462 kts | 166° |
| 2026-05-06 09:39 | 63.87320 | 35.29651 | 36752 ft | 461 kts | 166° |
| 2026-05-06 09:39 | 63.81259 | 35.34441 | 36755 ft | 461 kts | 167° |
| 2026-05-06 09:40 | 63.75194 | 35.39183 | 36761 ft | 461 kts | 167° |
| 2026-05-06 09:40 | 63.66095 | 35.46274 | 36759 ft | 461 kts | 167° |
| 2026-05-06 09:41 | 63.60068 | 35.50913 | 36759 ft | 460 kts | 168° |
| 2026-05-06 09:41 | 63.53979 | 35.55214 | 36755 ft | 458 kts | 169° |
| 2026-05-06 09:42 | 63.47869 | 35.59375 | 36753 ft | 458 kts | 169° |
| 2026-05-06 09:42 | 63.41768 | 35.63575 | 36754 ft | 459 kts | 169° |
| 2026-05-06 09:43 | 63.35667 | 35.67830 | 36759 ft | 459 kts | 169° |
| 2026-05-06 09:43 | 63.29571 | 35.72066 | 36759 ft | 458 kts | 169° |
| 2026-05-06 09:44 | 63.23516 | 35.76257 | 36756 ft | 458 kts | 169° |
| 2026-05-06 09:44 | 63.17418 | 35.80428 | 36758 ft | 458 kts | 169° |
| 2026-05-06 09:45 | 63.11321 | 35.84579 | 36764 ft | 458 kts | 169° |
| 2026-05-06 09:45 | 63.05220 | 35.88774 | 36770 ft | 459 kts | 169° |
| 2026-05-06 09:46 | 62.99128 | 35.92954 | 36774 ft | 459 kts | 169° |
| 2026-05-06 09:46 | 62.93029 | 35.97103 | 36778 ft | 459 kts | 169° |
| 2026-05-06 09:47 | 62.86932 | 36.01245 | 36780 ft | 459 kts | 169° |
| 2026-05-06 09:47 | 62.80834 | 36.05359 | 36820 ft | 457 kts | 169° |
| 2026-05-06 09:48 | 62.74770 | 36.09415 | 36780 ft | 457 kts | 170° |
| 2026-05-06 09:48 | 62.68680 | 36.13437 | 36772 ft | 457 kts | 170° |
| 2026-05-06 09:49 | 62.62581 | 36.17455 | 36776 ft | 458 kts | 170° |
| 2026-05-06 09:49 | 62.56468 | 36.21469 | 36781 ft | 458 kts | 170° |
| 2026-05-06 09:50 | 62.50367 | 36.25475 | 36787 ft | 458 kts | 170° |
| 2026-05-06 09:50 | 62.44258 | 36.29472 | 36795 ft | 458 kts | 170° |
| 2026-05-06 09:51 | 62.38179 | 36.33417 | 36801 ft | 458 kts | 171° |
| 2026-05-06 09:51 | 62.32068 | 36.37341 | 36807 ft | 458 kts | 171° |
| 2026-05-06 09:52 | 62.25957 | 36.41254 | 36812 ft | 458 kts | 171° |
| 2026-05-06 09:52 | 62.19849 | 36.45162 | 36814 ft | 457 kts | 171° |
| 2026-05-06 09:53 | 62.13785 | 36.49038 | 36823 ft | 456 kts | 171° |
| 2026-05-06 09:53 | 62.07696 | 36.52921 | 36828 ft | 456 kts | 171° |
| 2026-05-06 09:54 | 62.01621 | 36.56803 | 36833 ft | 455 kts | 171° |
| 2026-05-06 09:54 | 61.95560 | 36.60650 | 36839 ft | 454 kts | 171° |
| 2026-05-06 09:55 | 61.89504 | 36.64444 | 36840 ft | 453 kts | 171° |
| 2026-05-06 09:55 | 61.83456 | 36.68211 | 36845 ft | 452 kts | 171° |
| 2026-05-06 09:56 | 61.77418 | 36.71963 | 36842 ft | 452 kts | 171° |
| 2026-05-06 09:56 | 61.71428 | 36.75694 | 36839 ft | 452 kts | 171° |
| 2026-05-06 09:57 | 61.65390 | 36.79455 | 36841 ft | 452 kts | 171° |
| 2026-05-06 09:57 | 61.59355 | 36.83181 | 36840 ft | 452 kts | 172° |
| 2026-05-06 09:58 | 61.53321 | 36.86880 | 36838 ft | 452 kts | 172° |
| 2026-05-06 09:58 | 61.47280 | 36.90549 | 36843 ft | 452 kts | 172° |
| 2026-05-06 09:59 | 61.41245 | 36.94193 | 36845 ft | 452 kts | 172° |
| 2026-05-06 09:59 | 61.35199 | 36.97858 | 36848 ft | 452 kts | 172° |
| 2026-05-06 10:00 | 61.29161 | 37.01509 | 36844 ft | 452 kts | 172° |
| 2026-05-06 10:00 | 61.23138 | 37.05324 | 36842 ft | 453 kts | 170° |
| 2026-05-06 10:01 | 61.17151 | 37.09252 | 36840 ft | 453 kts | 170° |
| 2026-05-06 10:01 | 61.11124 | 37.13153 | 36839 ft | 453 kts | 171° |
| 2026-05-06 10:02 | 61.05098 | 37.16994 | 36844 ft | 453 kts | 171° |
| 2026-05-06 10:02 | 60.99058 | 37.20805 | 36839 ft | 453 kts | 171° |
| 2026-05-06 10:03 | 60.93019 | 37.24599 | 36840 ft | 453 kts | 171° |
| 2026-05-06 10:03 | 60.86982 | 37.28372 | 36840 ft | 453 kts | 171° |
| 2026-05-06 10:04 | 60.80941 | 37.32140 | 36847 ft | 453 kts | 171° |
| 2026-05-06 10:04 | 60.74942 | 37.35875 | 36846 ft | 453 kts | 171° |
| 2026-05-06 10:05 | 60.68905 | 37.39638 | 36840 ft | 453 kts | 171° |
| 2026-05-06 10:05 | 60.62904 | 37.43351 | 36840 ft | 452 kts | 171° |
| 2026-05-06 10:06 | 60.56874 | 37.47069 | 36841 ft | 452 kts | 171° |
| 2026-05-06 10:06 | 60.50845 | 37.50750 | 36835 ft | 452 kts | 171° |
| 2026-05-06 10:07 | 60.44808 | 37.54381 | 36829 ft | 451 kts | 172° |
| 2026-05-06 10:07 | 60.38741 | 37.57527 | 36828 ft | 449 kts | 174° |
| 2026-05-06 10:08 | 60.32705 | 37.60361 | 36826 ft | 448 kts | 174° |
| 2026-05-06 10:08 | 60.26625 | 37.63279 | 36829 ft | 449 kts | 173° |
| 2026-05-06 10:09 | 60.20562 | 37.66287 | 36825 ft | 449 kts | 173° |
| 2026-05-06 10:09 | 60.14491 | 37.69300 | 36828 ft | 449 kts | 173° |
| 2026-05-06 10:10 | 60.08411 | 37.72283 | 36824 ft | 449 kts | 173° |
| 2026-05-06 10:10 | 60.02383 | 37.75209 | 36828 ft | 449 kts | 173° |
| 2026-05-06 10:11 | 59.96291 | 37.77800 | 36824 ft | 446 kts | 176° |
| 2026-05-06 10:11 | 59.90188 | 37.79955 | 36818 ft | 445 kts | 177° |
| 2026-05-06 10:12 | 59.84076 | 37.82083 | 36822 ft | 446 kts | 176° |
| 2026-05-06 10:12 | 59.77966 | 37.84318 | 36820 ft | 446 kts | 176° |
| 2026-05-06 10:13 | 59.71893 | 37.86569 | 36820 ft | 446 kts | 176° |
| 2026-05-06 10:13 | 59.65783 | 37.88804 | 36817 ft | 446 kts | 176° |
| 2026-05-06 10:14 | 59.59671 | 37.90940 | 36815 ft | 446 kts | 176° |
| 2026-05-06 10:14 | 59.53549 | 37.93043 | 36815 ft | 446 kts | 176° |
| 2026-05-06 10:15 | 59.47468 | 37.95130 | 36813 ft | 446 kts | 176° |
| 2026-05-06 10:15 | 59.41351 | 37.97245 | 36812 ft | 446 kts | 176° |
| 2026-05-06 10:16 | 59.35238 | 37.99355 | 36811 ft | 446 kts | 176° |
| 2026-05-06 10:16 | 59.29110 | 38.01421 | 36810 ft | 444 kts | 180° |
| 2026-05-06 10:17 | 59.23050 | 38.01223 | 36807 ft | 433 kts | 191° |
| 2026-05-06 10:17 | 59.18049 | 38.00379 | 36808 ft | 434 kts | 191° |
| 2026-05-06 10:18 | 59.12027 | 37.99393 | 36808 ft | 434 kts | 190° |
| 2026-05-06 10:18 | 59.05998 | 37.98421 | 36812 ft | 435 kts | 190° |
| 2026-05-06 10:19 | 58.99961 | 37.97447 | 36815 ft | 435 kts | 190° |
| 2026-05-06 10:19 | 58.93959 | 37.96477 | 36819 ft | 435 kts | 190° |
| 2026-05-06 10:20 | 58.87910 | 37.95499 | 36821 ft | 435 kts | 190° |
| 2026-05-06 10:20 | 58.81873 | 37.94545 | 37044 ft | 433 kts | 190° |
| 2026-05-06 10:21 | 58.78876 | 37.94069 | 37312 ft | 431 kts | 190° |
| 2026-05-06 10:21 | 58.75889 | 37.93590 | 37578 ft | 429 kts | 190° |
| 2026-05-06 10:21 | 58.72910 | 37.93116 | 37781 ft | 429 kts | 190° |
| 2026-05-06 10:21 | 58.69964 | 37.92648 | 37832 ft | 432 kts | 190° |
| 2026-05-06 10:22 | 58.63944 | 37.91731 | 37834 ft | 435 kts | 189° |
| 2026-05-06 10:22 | 58.57901 | 37.90928 | 37834 ft | 435 kts | 189° |
| 2026-05-06 10:23 | 58.51857 | 37.90145 | 37834 ft | 435 kts | 189° |
| 2026-05-06 10:23 | 58.45809 | 37.89338 | 37837 ft | 435 kts | 189° |
| 2026-05-06 10:24 | 58.39766 | 37.88495 | 37836 ft | 436 kts | 189° |
| 2026-05-06 10:24 | 58.33704 | 37.87658 | 37840 ft | 436 kts | 189° |
| 2026-05-06 10:25 | 58.27688 | 37.86854 | 37845 ft | 436 kts | 189° |
| 2026-05-06 10:25 | 58.21620 | 37.86041 | 37852 ft | 437 kts | 189° |
| 2026-05-06 10:26 | 58.15555 | 37.85231 | 37853 ft | 437 kts | 189° |
| 2026-05-06 10:26 | 58.09486 | 37.84437 | 37851 ft | 437 kts | 189° |
| 2026-05-06 10:27 | 58.03421 | 37.83639 | 37849 ft | 437 kts | 189° |
| 2026-05-06 10:27 | 57.97392 | 37.82833 | 37639 ft | 436 kts | 189° |
| 2026-05-06 10:28 | 57.94334 | 37.82431 | 37140 ft | 434 kts | 189° |
| 2026-05-06 10:28 | 57.91368 | 37.82048 | 36492 ft | 432 kts | 189° |
| 2026-05-06 10:28 | 57.88374 | 37.81664 | 35765 ft | 432 kts | 189° |
| 2026-05-06 10:28 | 57.85373 | 37.81273 | 34986 ft | 433 kts | 189° |
| 2026-05-06 10:29 | 57.82342 | 37.80870 | 34123 ft | 437 kts | 189° |
| 2026-05-06 10:29 | 57.79299 | 37.80454 | 33165 ft | 439 kts | 190° |
| 2026-05-06 10:29 | 57.76245 | 37.80020 | 32191 ft | 441 kts | 190° |
| 2026-05-06 10:29 | 57.73178 | 37.79575 | 31143 ft | 443 kts | 191° |
| 2026-05-06 10:30 | 57.70101 | 37.79125 | 30178 ft | 444 kts | 191° |
| 2026-05-06 10:30 | 57.67009 | 37.78673 | 28943 ft | 447 kts | 191° |
| 2026-05-06 10:30 | 57.63914 | 37.78229 | 27883 ft | 446 kts | 191° |
| 2026-05-06 10:30 | 57.60851 | 37.77800 | 27317 ft | 436 kts | 191° |
| 2026-05-06 10:31 | 57.57843 | 37.77381 | 26592 ft | 430 kts | 191° |
| 2026-05-06 10:31 | 57.54875 | 37.76964 | 25879 ft | 425 kts | 191° |
| 2026-05-06 10:31 | 57.51982 | 37.76561 | 25203 ft | 420 kts | 191° |
| 2026-05-06 10:31 | 57.49073 | 37.76162 | 24529 ft | 417 kts | 191° |
| 2026-05-06 10:32 | 57.46194 | 37.75769 | 23862 ft | 413 kts | 191° |
| 2026-05-06 10:32 | 57.43339 | 37.75381 | 23166 ft | 410 kts | 191° |
| 2026-05-06 10:32 | 57.40505 | 37.75008 | 22510 ft | 405 kts | 191° |
| 2026-05-06 10:32 | 57.37709 | 37.74647 | 21911 ft | 400 kts | 191° |
| 2026-05-06 10:33 | 57.34944 | 37.74296 | 21320 ft | 396 kts | 191° |
| 2026-05-06 10:33 | 57.32209 | 37.73945 | 20779 ft | 391 kts | 191° |
| 2026-05-06 10:33 | 57.29504 | 37.73597 | 20237 ft | 388 kts | 191° |
| 2026-05-06 10:33 | 57.26828 | 37.73257 | 19726 ft | 384 kts | 191° |
| 2026-05-06 10:34 | 57.24168 | 37.72927 | 19211 ft | 381 kts | 191° |
| 2026-05-06 10:34 | 57.21533 | 37.72599 | 18730 ft | 377 kts | 190° |
| 2026-05-06 10:34 | 57.18922 | 37.72272 | 18302 ft | 373 kts | 191° |
| 2026-05-06 10:34 | 57.16415 | 37.71959 | 18175 ft | 359 kts | 191° |
| 2026-05-06 10:35 | 57.13965 | 37.71654 | 18008 ft | 347 kts | 191° |
| 2026-05-06 10:35 | 57.11575 | 37.71345 | 17681 ft | 341 kts | 191° |
| 2026-05-06 10:35 | 57.09261 | 37.70710 | 17413 ft | 333 kts | 198° |
| 2026-05-06 10:35 | 57.06989 | 37.69907 | 17167 ft | 332 kts | 197° |
| 2026-05-06 10:36 | 57.04719 | 37.69113 | 16825 ft | 331 kts | 197° |
| 2026-05-06 10:36 | 57.02466 | 37.68332 | 16454 ft | 329 kts | 197° |
| 2026-05-06 10:36 | 57.00221 | 37.67559 | 16075 ft | 327 kts | 197° |
| 2026-05-06 10:36 | 56.97983 | 37.66792 | 15706 ft | 326 kts | 197° |
| 2026-05-06 10:37 | 56.95760 | 37.66031 | 15328 ft | 324 kts | 197° |
| 2026-05-06 10:37 | 56.93547 | 37.65270 | 14948 ft | 323 kts | 197° |
| 2026-05-06 10:37 | 56.91341 | 37.64512 | 14581 ft | 322 kts | 197° |
| 2026-05-06 10:37 | 56.89169 | 37.63770 | 14225 ft | 320 kts | 197° |
| 2026-05-06 10:38 | 56.86977 | 37.63025 | 13866 ft | 319 kts | 197° |
| 2026-05-06 10:38 | 56.84800 | 37.62287 | 13483 ft | 318 kts | 197° |
| 2026-05-06 10:38 | 56.82634 | 37.61550 | 13104 ft | 316 kts | 197° |
| 2026-05-06 10:38 | 56.80471 | 37.60813 | 12736 ft | 314 kts | 197° |
| 2026-05-06 10:39 | 56.78327 | 37.60081 | 12387 ft | 312 kts | 197° |
| 2026-05-06 10:39 | 56.76199 | 37.59356 | 12057 ft | 309 kts | 196° |
| 2026-05-06 10:39 | 56.74138 | 37.58562 | 11920 ft | 294 kts | 204° |
| 2026-05-06 10:39 | 56.72366 | 37.56972 | 11716 ft | 278 kts | 220° |
| 2026-05-06 10:40 | 56.70996 | 37.54595 | 11466 ft | 268 kts | 236° |
| 2026-05-06 10:40 | 56.70072 | 37.51690 | 11214 ft | 264 kts | 249° |
| 2026-05-06 10:40 | 56.69333 | 37.48631 | 10963 ft | 263 kts | 248° |
| 2026-05-06 10:40 | 56.68599 | 37.45632 | 10713 ft | 262 kts | 248° |
| 2026-05-06 10:41 | 56.67639 | 37.42821 | 10483 ft | 266 kts | 228° |
| 2026-05-06 10:41 | 56.66024 | 37.41127 | 10235 ft | 277 kts | 199° |
| 2026-05-06 10:41 | 56.64069 | 37.41189 | 9988 ft | 292 kts | 169° |
| 2026-05-06 10:41 | 56.62159 | 37.42587 | 9853 ft | 297 kts | 162° |
| 2026-05-06 10:42 | 56.60261 | 37.44099 | 9730 ft | 298 kts | 162° |
| 2026-05-06 10:42 | 56.58368 | 37.45633 | 9580 ft | 298 kts | 162° |
| 2026-05-06 10:42 | 56.56474 | 37.47169 | 9297 ft | 297 kts | 161° |
| 2026-05-06 10:42 | 56.54614 | 37.48668 | 9110 ft | 288 kts | 163° |
| 2026-05-06 10:43 | 56.52757 | 37.49550 | 9004 ft | 265 kts | 183° |
| 2026-05-06 10:43 | 56.50975 | 37.49284 | 9012 ft | 252 kts | 201° |
| 2026-05-06 10:43 | 56.49389 | 37.48063 | 9009 ft | 243 kts | 218° |
| 2026-05-06 10:44 | 56.46650 | 37.44554 | 9014 ft | 243 kts | 220° |
| 2026-05-06 10:44 | 56.45269 | 37.42799 | 9011 ft | 243 kts | 220° |
| 2026-05-06 10:44 | 56.44021 | 37.40803 | 9004 ft | 234 kts | 237° |
| 2026-05-06 10:44 | 56.43326 | 37.38256 | 8986 ft | 224 kts | 257° |
| 2026-05-06 10:45 | 56.43210 | 37.35485 | 8912 ft | 222 kts | 272° |
| 2026-05-06 10:45 | 56.43296 | 37.32689 | 8846 ft | 223 kts | 271° |
| 2026-05-06 10:45 | 56.43374 | 37.29892 | 8783 ft | 222 kts | 272° |
| 2026-05-06 10:45 | 56.43450 | 37.27137 | 8717 ft | 222 kts | 272° |
| 2026-05-06 10:46 | 56.43530 | 37.24344 | 8653 ft | 222 kts | 271° |
| 2026-05-06 10:46 | 56.43411 | 37.21571 | 8583 ft | 222 kts | 256° |
| 2026-05-06 10:46 | 56.42831 | 37.18983 | 8519 ft | 223 kts | 245° |
| 2026-05-06 10:46 | 56.42143 | 37.16467 | 8445 ft | 223 kts | 246° |
| 2026-05-06 10:47 | 56.41458 | 37.13950 | 8369 ft | 223 kts | 246° |
| 2026-05-06 10:47 | 56.40739 | 37.11469 | 8297 ft | 224 kts | 237° |
| 2026-05-06 10:47 | 56.39528 | 37.09676 | 8215 ft | 233 kts | 207° |
| 2026-05-06 10:47 | 56.37900 | 37.09321 | 8151 ft | 247 kts | 175° |
| 2026-05-06 10:48 | 56.36329 | 37.10733 | 8074 ft | 262 kts | 144° |
| 2026-05-06 10:48 | 56.34964 | 37.12956 | 7989 ft | 265 kts | 142° |
| 2026-05-06 10:48 | 56.33627 | 37.15197 | 7914 ft | 265 kts | 142° |
| 2026-05-06 10:48 | 56.32282 | 37.17461 | 7825 ft | 265 kts | 142° |
| 2026-05-06 10:49 | 56.30932 | 37.19720 | 7744 ft | 265 kts | 142° |
| 2026-05-06 10:49 | 56.29581 | 37.21973 | 7662 ft | 264 kts | 142° |
| 2026-05-06 10:49 | 56.28234 | 37.24210 | 7582 ft | 264 kts | 143° |
| 2026-05-06 10:49 | 56.26883 | 37.26447 | 7501 ft | 263 kts | 143° |
| 2026-05-06 10:50 | 56.25483 | 37.28549 | 7411 ft | 259 kts | 154° |
| 2026-05-06 10:50 | 56.23884 | 37.29881 | 7345 ft | 250 kts | 171° |
| 2026-05-06 10:50 | 56.22211 | 37.30701 | 7264 ft | 249 kts | 172° |
| 2026-05-06 10:50 | 56.20533 | 37.31529 | 7185 ft | 249 kts | 171° |
| 2026-05-06 10:51 | 56.18864 | 37.32370 | 7107 ft | 250 kts | 168° |
| 2026-05-06 10:51 | 56.17383 | 37.34042 | 7033 ft | 264 kts | 134° |
| 2026-05-06 10:51 | 56.16629 | 37.37077 | 6834 ft | 274 kts | 97° |
| 2026-05-06 10:51 | 56.16811 | 37.40459 | 6542 ft | 273 kts | 77° |
| 2026-05-06 10:52 | 56.17281 | 37.43758 | 6256 ft | 272 kts | 73° |
| 2026-05-06 10:52 | 56.17820 | 37.47007 | 5963 ft | 271 kts | 72° |
| 2026-05-06 10:52 | 56.18364 | 37.50227 | 5681 ft | 268 kts | 73° |
| 2026-05-06 10:52 | 56.18888 | 37.53419 | 5403 ft | 266 kts | 75° |
| 2026-05-06 10:53 | 56.19108 | 37.56691 | 5137 ft | 262 kts | 96° |
| 2026-05-06 10:53 | 56.18683 | 37.59816 | 4909 ft | 255 kts | 117° |
| 2026-05-06 10:53 | 56.17724 | 37.62426 | 4805 ft | 249 kts | 138° |
| 2026-05-06 10:53 | 56.16513 | 37.64632 | 4687 ft | 247 kts | 139° |
| 2026-05-06 10:54 | 56.15313 | 37.66828 | 4567 ft | 246 kts | 140° |
| 2026-05-06 10:54 | 56.14129 | 37.68998 | 4444 ft | 247 kts | 139° |
| 2026-05-06 10:54 | 56.12929 | 37.71199 | 4329 ft | 245 kts | 139° |
| 2026-05-06 10:54 | 56.11766 | 37.73341 | 4212 ft | 234 kts | 139° |
| 2026-05-06 10:55 | 56.10631 | 37.75400 | 4104 ft | 229 kts | 143° |
| 2026-05-06 10:55 | 56.09286 | 37.76751 | 3994 ft | 217 kts | 171° |
| 2026-05-06 10:55 | 56.07813 | 37.76875 | 3838 ft | 210 kts | 196° |
| 2026-05-06 10:55 | 56.06438 | 37.76101 | 3678 ft | 204 kts | 203° |
| 2026-05-06 10:56 | 56.05114 | 37.75291 | 3516 ft | 197 kts | 202° |
| 2026-05-06 10:56 | 56.03858 | 37.74530 | 3436 ft | 183 kts | 204° |
| 2026-05-06 10:56 | 56.02740 | 37.73657 | 3301 ft | 168 kts | 220° |
| 2026-05-06 10:56 | 56.02006 | 37.72169 | 3174 ft | 155 kts | 242° |
| 2026-05-06 10:57 | 56.01686 | 37.70412 | 3044 ft | 146 kts | 254° |
| 2026-05-06 10:57 | 56.01427 | 37.68707 | 2882 ft | 139 kts | 254° |
| 2026-05-06 10:57 | 56.01178 | 37.67046 | 2657 ft | 137 kts | 255° |
| 2026-05-06 10:57 | 56.00933 | 37.65390 | 2470 ft | 142 kts | 253° |
| 2026-05-06 10:58 | 56.00678 | 37.63665 | 2308 ft | 143 kts | 253° |
| 2026-05-06 10:58 | 56.00434 | 37.61999 | 2109 ft | 136 kts | 253° |
| 2026-05-06 10:58 | 56.00192 | 37.60359 | 2036 ft | 136 kts | 254° |
| 2026-05-06 10:58 | 55.99951 | 37.58722 | 2020 ft | 137 kts | 254° |
| 2026-05-06 10:59 | 55.99708 | 37.57081 | 1981 ft | 137 kts | 253° |
| 2026-05-06 10:59 | 55.99469 | 37.55454 | 1876 ft | 136 kts | 255° |
| 2026-05-06 10:59 | 55.99227 | 37.53820 | 1734 ft | 137 kts | 255° |
| 2026-05-06 10:59 | 55.98985 | 37.52181 | 1567 ft | 135 kts | 255° |
| 2026-05-06 11:00 | 55.98750 | 37.50546 | 1355 ft | 138 kts | 254° |
| 2026-05-06 11:00 | 55.98503 | 37.48890 | 1192 ft | 137 kts | 256° |
| 2026-05-06 11:00 | 55.98252 | 37.47257 | 956 ft | 136 kts | 259° |
| 2026-05-06 11:00 | 55.98014 | 37.45633 | 854 ft | 135 kts | 257° |
| 2026-05-06 11:01 | 55.97780 | 37.44038 | 666 ft | 133 kts | 257° |
| 2026-05-06 11:01 | 55.97572 | 37.42581 | 644 ft | 102 kts | 255° |
| 2026-05-06 11:01 | 55.97428 | 37.41645 | 640 ft | 52 kts | 255° |
| 2026-05-06 11:01 | 55.97383 | 37.41296 | 640 ft | 17 kts | 275° |
| 2026-05-06 11:02 | 55.97463 | 37.41202 | 642 ft | 8 kts | 343° |
| 2026-05-06 11:02 | 55.97490 | 37.41191 | 641 ft | 0 kts | 347° |
| 2026-05-06 11:06 | 55.97526 | 37.41206 | 642 ft | 6 kts | 31° |
| 2026-05-06 11:07 | 55.97546 | 37.41265 | 639 ft | 6 kts | 71° |
| 2026-05-06 11:07 | 55.97565 | 37.41388 | 644 ft | 13 kts | 75° |
| 2026-05-06 11:07 | 55.97585 | 37.41528 | 645 ft | 9 kts | 74° |
| 2026-05-06 11:07 | 55.97619 | 37.41597 | 639 ft | 7 kts | 18° |
| 2026-05-06 11:08 | 55.97663 | 37.41589 | 642 ft | 6 kts | 346° |
| 2026-05-06 11:08 | 55.97717 | 37.41563 | 639 ft | 12 kts | 344° |
| 2026-05-06 11:08 | 55.97795 | 37.41526 | 641 ft | 10 kts | 349° |
| 2026-05-06 11:08 | 55.97827 | 37.41565 | 639 ft | 5 kts | 61° |
| 2026-05-06 11:09 | 55.97836 | 37.41616 | 644 ft | 4 kts | 74° |
| 2026-05-06 11:09 | 55.97839 | 37.41634 | 641 ft | 0 kts | 75° |